sensor_id;sensor_type;location;lat;lon;timestamp;temperature;humidity
22950;DHT22;11641;51.018;4.474;2022-09-09T00:02:24;15.40;99.90
22950;DHT22;11641;51.018;4.474;2022-09-09T00:05:14;15.40;99.90
22950;DHT22;11641;51.018;4.474;2022-09-09T00:07:51;15.40;99.90
22950;DHT22;11641;51.018;4.474;2022-09-09T00:10:37;15.50;99.90
22950;DHT22;11641;51.018;4.474;2022-09-09T00:13:20;15.50;99.90
22950;DHT22;11641;51.018;4.474;2022-09-09T00:16:19;15.50;99.90
22950;DHT22;11641;51.018;4.474;2022-09-09T00:21:43;15.60;99.90
22950;DHT22;11641;51.018;4.474;2022-09-09T00:24:26;15.70;99.90
22950;DHT22;11641;51.018;4.474;2022-09-09T00:27:14;15.70;99.90
22950;DHT22;11641;51.018;4.474;2022-09-09T00:29:53;15.80;99.90
22950;DHT22;11641;51.018;4.474;2022-09-09T00:32:21;15.70;99.90
22950;DHT22;11641;51.018;4.474;2022-09-09T00:35:02;15.70;99.90
22950;DHT22;11641;51.018;4.474;2022-09-09T00:37:28;15.80;99.90
22950;DHT22;11641;51.018;4.474;2022-09-09T00:39:59;15.70;99.90
22950;DHT22;11641;51.018;4.474;2022-09-09T00:42:43;15.70;99.90
22950;DHT22;11641;51.018;4.474;2022-09-09T00:48:03;15.70;99.90
22950;DHT22;11641;51.018;4.474;2022-09-09T00:50:59;15.70;99.90
22950;DHT22;11641;51.018;4.474;2022-09-09T00:56:34;15.80;99.90
22950;DHT22;11641;51.018;4.474;2022-09-09T01:01:46;15.80;99.90
22950;DHT22;11641;51.018;4.474;2022-09-09T01:04:18;15.80;99.90
22950;DHT22;11641;51.018;4.474;2022-09-09T01:06:50;15.90;99.90
22950;DHT22;11641;51.018;4.474;2022-09-09T01:09:30;15.80;99.90
22950;DHT22;11641;51.018;4.474;2022-09-09T01:12:17;15.70;99.90
22950;DHT22;11641;51.018;4.474;2022-09-09T01:17:32;15.70;99.90
22950;DHT22;11641;51.018;4.474;2022-09-09T01:20:23;15.70;99.90
22950;DHT22;11641;51.018;4.474;2022-09-09T01:28:26;15.60;99.90
22950;DHT22;11641;51.018;4.474;2022-09-09T01:30:53;15.70;99.90
22950;DHT22;11641;51.018;4.474;2022-09-09T01:33:22;15.70;99.90
22950;DHT22;11641;51.018;4.474;2022-09-09T01:36:06;15.60;99.90
22950;DHT22;11641;51.018;4.474;2022-09-09T01:38:34;15.50;99.90
22950;DHT22;11641;51.018;4.474;2022-09-09T01:41:01;15.50;99.90
22950;DHT22;11641;51.018;4.474;2022-09-09T01:43:30;15.50;99.90
22950;DHT22;11641;51.018;4.474;2022-09-09T01:45:59;15.50;99.90
22950;DHT22;11641;51.018;4.474;2022-09-09T01:48:26;15.60;99.90
22950;DHT22;11641;51.018;4.474;2022-09-09T01:50:54;15.50;99.90
22950;DHT22;11641;51.018;4.474;2022-09-09T01:53:25;15.50;99.90
22950;DHT22;11641;51.018;4.474;2022-09-09T02:04:34;15.50;99.90
22950;DHT22;11641;51.018;4.474;2022-09-09T02:07:01;15.40;99.90
22950;DHT22;11641;51.018;4.474;2022-09-09T02:09:30;15.40;99.90
22950;DHT22;11641;51.018;4.474;2022-09-09T02:12:02;15.40;99.90
22950;DHT22;11641;51.018;4.474;2022-09-09T02:14:33;15.50;99.90
22950;DHT22;11641;51.018;4.474;2022-09-09T02:17:11;15.50;99.90
22950;DHT22;11641;51.018;4.474;2022-09-09T02:19:42;15.40;99.90
22950;DHT22;11641;51.018;4.474;2022-09-09T02:22:11;15.40;99.90
22950;DHT22;11641;51.018;4.474;2022-09-09T02:24:39;15.30;99.90
22950;DHT22;11641;51.018;4.474;2022-09-09T02:27:09;15.40;99.90
22950;DHT22;11641;51.018;4.474;2022-09-09T02:29:41;15.40;99.90
22950;DHT22;11641;51.018;4.474;2022-09-09T02:32:12;15.40;99.90
22950;DHT22;11641;51.018;4.474;2022-09-09T02:34:51;15.40;99.90
22950;DHT22;11641;51.018;4.474;2022-09-09T02:37:21;15.40;99.90
22950;DHT22;11641;51.018;4.474;2022-09-09T02:39:54;15.40;99.90
22950;DHT22;11641;51.018;4.474;2022-09-09T02:42:20;15.40;99.90
22950;DHT22;11641;51.018;4.474;2022-09-09T02:44:52;15.40;99.90
22950;DHT22;11641;51.018;4.474;2022-09-09T02:47:56;15.40;99.90
22950;DHT22;11641;51.018;4.474;2022-09-09T02:50:34;15.40;99.90
22950;DHT22;11641;51.018;4.474;2022-09-09T02:53:20;15.40;99.90
22950;DHT22;11641;51.018;4.474;2022-09-09T02:55:56;15.50;99.90
22950;DHT22;11641;51.018;4.474;2022-09-09T02:58:23;15.50;99.90
22950;DHT22;11641;51.018;4.474;2022-09-09T03:00:52;15.50;99.90
22950;DHT22;11641;51.018;4.474;2022-09-09T03:03:18;15.60;99.90
22950;DHT22;11641;51.018;4.474;2022-09-09T03:05:46;15.70;99.90
22950;DHT22;11641;51.018;4.474;2022-09-09T03:08:12;15.60;99.90
22950;DHT22;11641;51.018;4.474;2022-09-09T03:10:39;15.60;99.90
22950;DHT22;11641;51.018;4.474;2022-09-09T03:13:08;15.50;99.90
22950;DHT22;11641;51.018;4.474;2022-09-09T03:15:34;15.50;99.90
22950;DHT22;11641;51.018;4.474;2022-09-09T03:18:00;15.60;99.90
22950;DHT22;11641;51.018;4.474;2022-09-09T03:20:29;15.60;99.90
22950;DHT22;11641;51.018;4.474;2022-09-09T03:22:59;15.70;99.90
22950;DHT22;11641;51.018;4.474;2022-09-09T03:25:24;15.70;99.90
22950;DHT22;11641;51.018;4.474;2022-09-09T03:27:54;15.70;99.90
22950;DHT22;11641;51.018;4.474;2022-09-09T03:30:25;15.80;99.90
22950;DHT22;11641;51.018;4.474;2022-09-09T03:32:51;15.80;99.90
22950;DHT22;11641;51.018;4.474;2022-09-09T03:35:17;15.90;99.90
22950;DHT22;11641;51.018;4.474;2022-09-09T03:37:46;15.90;99.90
22950;DHT22;11641;51.018;4.474;2022-09-09T03:40:12;15.80;99.90
22950;DHT22;11641;51.018;4.474;2022-09-09T03:42:38;15.80;99.90
22950;DHT22;11641;51.018;4.474;2022-09-09T03:45:06;15.80;99.90
22950;DHT22;11641;51.018;4.474;2022-09-09T03:47:33;15.80;99.90
22950;DHT22;11641;51.018;4.474;2022-09-09T03:49:58;15.90;99.90
22950;DHT22;11641;51.018;4.474;2022-09-09T03:52:24;15.80;99.90
22950;DHT22;11641;51.018;4.474;2022-09-09T03:54:52;15.80;99.90
22950;DHT22;11641;51.018;4.474;2022-09-09T03:57:18;15.80;99.90
22950;DHT22;11641;51.018;4.474;2022-09-09T03:59:46;15.90;99.90
22950;DHT22;11641;51.018;4.474;2022-09-09T04:02:13;15.90;99.90
22950;DHT22;11641;51.018;4.474;2022-09-09T04:04:42;15.80;99.90
22950;DHT22;11641;51.018;4.474;2022-09-09T04:07:08;15.80;99.90
22950;DHT22;11641;51.018;4.474;2022-09-09T04:09:34;15.70;99.90
22950;DHT22;11641;51.018;4.474;2022-09-09T04:12:00;15.80;99.90
22950;DHT22;11641;51.018;4.474;2022-09-09T04:14:26;15.90;99.90
22950;DHT22;11641;51.018;4.474;2022-09-09T04:16:57;15.90;99.90
22950;DHT22;11641;51.018;4.474;2022-09-09T04:19:24;16.00;99.90
22950;DHT22;11641;51.018;4.474;2022-09-09T04:21:51;16.00;99.90
22950;DHT22;11641;51.018;4.474;2022-09-09T04:24:17;16.00;99.90
22950;DHT22;11641;51.018;4.474;2022-09-09T04:26:43;16.00;99.90
22950;DHT22;11641;51.018;4.474;2022-09-09T04:29:09;16.10;99.90
22950;DHT22;11641;51.018;4.474;2022-09-09T04:31:39;16.10;99.90
22950;DHT22;11641;51.018;4.474;2022-09-09T04:34:08;16.10;99.90
22950;DHT22;11641;51.018;4.474;2022-09-09T04:36:34;16.10;99.90
22950;DHT22;11641;51.018;4.474;2022-09-09T04:39:00;15.90;99.90
22950;DHT22;11641;51.018;4.474;2022-09-09T04:41:27;15.90;99.90
22950;DHT22;11641;51.018;4.474;2022-09-09T04:43:52;15.80;99.90
22950;DHT22;11641;51.018;4.474;2022-09-09T04:46:20;15.80;99.90
22950;DHT22;11641;51.018;4.474;2022-09-09T04:48:46;15.80;99.90
22950;DHT22;11641;51.018;4.474;2022-09-09T04:51:13;15.80;99.90
22950;DHT22;11641;51.018;4.474;2022-09-09T04:53:39;15.80;99.90
22950;DHT22;11641;51.018;4.474;2022-09-09T04:56:08;15.70;99.90
22950;DHT22;11641;51.018;4.474;2022-09-09T04:58:35;15.70;99.90
22950;DHT22;11641;51.018;4.474;2022-09-09T05:01:09;15.80;99.90
22950;DHT22;11641;51.018;4.474;2022-09-09T05:03:35;15.80;99.90
22950;DHT22;11641;51.018;4.474;2022-09-09T05:06:10;15.70;99.90
22950;DHT22;11641;51.018;4.474;2022-09-09T05:08:39;15.70;99.90
22950;DHT22;11641;51.018;4.474;2022-09-09T05:11:28;15.80;99.90
22950;DHT22;11641;51.018;4.474;2022-09-09T05:13:54;15.90;99.90
22950;DHT22;11641;51.018;4.474;2022-09-09T05:16:21;15.90;99.90
22950;DHT22;11641;51.018;4.474;2022-09-09T05:18:51;16.00;99.90
22950;DHT22;11641;51.018;4.474;2022-09-09T05:21:19;16.00;99.90
22950;DHT22;11641;51.018;4.474;2022-09-09T05:23:45;16.00;99.90
22950;DHT22;11641;51.018;4.474;2022-09-09T05:26:18;16.00;99.90
22950;DHT22;11641;51.018;4.474;2022-09-09T05:28:44;16.10;99.90
22950;DHT22;11641;51.018;4.474;2022-09-09T05:31:15;16.20;99.90
22950;DHT22;11641;51.018;4.474;2022-09-09T05:33:44;16.20;99.90
22950;DHT22;11641;51.018;4.474;2022-09-09T05:36:18;16.20;99.90
22950;DHT22;11641;51.018;4.474;2022-09-09T05:38:44;16.30;99.90
22950;DHT22;11641;51.018;4.474;2022-09-09T05:41:14;16.40;99.90
22950;DHT22;11641;51.018;4.474;2022-09-09T05:43:45;16.50;99.90
22950;DHT22;11641;51.018;4.474;2022-09-09T05:46:17;16.60;99.90
22950;DHT22;11641;51.018;4.474;2022-09-09T05:48:48;16.70;99.90
22950;DHT22;11641;51.018;4.474;2022-09-09T05:51:18;16.80;99.90
22950;DHT22;11641;51.018;4.474;2022-09-09T05:53:46;16.80;99.90
22950;DHT22;11641;51.018;4.474;2022-09-09T05:56:20;16.90;99.90
22950;DHT22;11641;51.018;4.474;2022-09-09T05:58:47;17.00;99.90
22950;DHT22;11641;51.018;4.474;2022-09-09T06:01:15;17.10;99.90
22950;DHT22;11641;51.018;4.474;2022-09-09T06:03:43;17.10;99.90
22950;DHT22;11641;51.018;4.474;2022-09-09T06:06:14;17.10;99.90
22950;DHT22;11641;51.018;4.474;2022-09-09T06:08:42;17.20;99.90
22950;DHT22;11641;51.018;4.474;2022-09-09T06:11:18;17.10;99.90
22950;DHT22;11641;51.018;4.474;2022-09-09T06:13:44;17.10;99.90
22950;DHT22;11641;51.018;4.474;2022-09-09T06:16:14;17.10;99.90
22950;DHT22;11641;51.018;4.474;2022-09-09T06:18:41;17.20;99.90
22950;DHT22;11641;51.018;4.474;2022-09-09T06:21:20;17.20;99.90
22950;DHT22;11641;51.018;4.474;2022-09-09T06:23:47;17.20;99.90
22950;DHT22;11641;51.018;4.474;2022-09-09T06:26:34;17.40;99.90
22950;DHT22;11641;51.018;4.474;2022-09-09T06:29:04;17.50;99.90
22950;DHT22;11641;51.018;4.474;2022-09-09T06:31:31;17.70;99.90
22950;DHT22;11641;51.018;4.474;2022-09-09T06:33:59;17.70;99.90
22950;DHT22;11641;51.018;4.474;2022-09-09T06:36:33;17.80;99.90
22950;DHT22;11641;51.018;4.474;2022-09-09T06:39:00;18.00;99.90
22950;DHT22;11641;51.018;4.474;2022-09-09T06:41:30;18.00;99.90
22950;DHT22;11641;51.018;4.474;2022-09-09T06:43:56;17.90;99.90
22950;DHT22;11641;51.018;4.474;2022-09-09T06:46:30;17.80;99.90
22950;DHT22;11641;51.018;4.474;2022-09-09T06:48:57;17.90;99.90
22950;DHT22;11641;51.018;4.474;2022-09-09T06:51:35;17.70;99.90
22950;DHT22;11641;51.018;4.474;2022-09-09T06:54:08;17.70;99.90
22950;DHT22;11641;51.018;4.474;2022-09-09T06:56:36;17.90;99.90
22950;DHT22;11641;51.018;4.474;2022-09-09T06:59:09;18.00;99.90
22950;DHT22;11641;51.018;4.474;2022-09-09T07:01:38;18.10;99.90
22950;DHT22;11641;51.018;4.474;2022-09-09T07:04:06;18.20;99.90
22950;DHT22;11641;51.018;4.474;2022-09-09T07:06:45;18.30;99.90
22950;DHT22;11641;51.018;4.474;2022-09-09T07:09:14;18.40;99.90
22950;DHT22;11641;51.018;4.474;2022-09-09T07:11:45;18.40;99.90
22950;DHT22;11641;51.018;4.474;2022-09-09T07:14:11;18.60;99.90
22950;DHT22;11641;51.018;4.474;2022-09-09T07:16:57;18.60;99.90
22950;DHT22;11641;51.018;4.474;2022-09-09T07:19:23;18.70;99.90
22950;DHT22;11641;51.018;4.474;2022-09-09T07:21:50;18.70;99.90
22950;DHT22;11641;51.018;4.474;2022-09-09T07:24:18;18.70;99.90
22950;DHT22;11641;51.018;4.474;2022-09-09T07:26:47;18.80;99.90
22950;DHT22;11641;51.018;4.474;2022-09-09T07:29:15;18.90;99.90
22950;DHT22;11641;51.018;4.474;2022-09-09T07:31:42;18.80;99.90
22950;DHT22;11641;51.018;4.474;2022-09-09T07:34:08;18.60;99.90
22950;DHT22;11641;51.018;4.474;2022-09-09T07:36:36;18.60;99.90
22950;DHT22;11641;51.018;4.474;2022-09-09T07:39:10;18.80;99.90
22950;DHT22;11641;51.018;4.474;2022-09-09T07:41:47;18.80;99.90
22950;DHT22;11641;51.018;4.474;2022-09-09T07:44:21;19.00;99.90
22950;DHT22;11641;51.018;4.474;2022-09-09T07:46:47;18.90;99.90
22950;DHT22;11641;51.018;4.474;2022-09-09T07:49:14;18.90;99.90
22950;DHT22;11641;51.018;4.474;2022-09-09T07:51:45;18.80;99.90
22950;DHT22;11641;51.018;4.474;2022-09-09T07:54:17;18.80;99.90
22950;DHT22;11641;51.018;4.474;2022-09-09T07:56:46;18.90;99.90
22950;DHT22;11641;51.018;4.474;2022-09-09T07:59:12;18.60;99.90
22950;DHT22;11641;51.018;4.474;2022-09-09T08:01:52;18.50;99.90
22950;DHT22;11641;51.018;4.474;2022-09-09T08:04:21;18.60;99.90
22950;DHT22;11641;51.018;4.474;2022-09-09T08:06:57;18.70;99.90
22950;DHT22;11641;51.018;4.474;2022-09-09T08:09:25;19.00;99.90
22950;DHT22;11641;51.018;4.474;2022-09-09T08:11:54;19.30;99.90
22950;DHT22;11641;51.018;4.474;2022-09-09T08:14:20;19.60;99.90
22950;DHT22;11641;51.018;4.474;2022-09-09T08:16:48;19.70;99.90
22950;DHT22;11641;51.018;4.474;2022-09-09T08:19:15;20.00;99.90
22950;DHT22;11641;51.018;4.474;2022-09-09T08:21:41;20.10;99.90
22950;DHT22;11641;51.018;4.474;2022-09-09T08:24:09;20.00;99.90
22950;DHT22;11641;51.018;4.474;2022-09-09T08:26:41;19.90;99.90
22950;DHT22;11641;51.018;4.474;2022-09-09T08:29:11;20.00;99.90
22950;DHT22;11641;51.018;4.474;2022-09-09T08:31:42;20.10;99.90
22950;DHT22;11641;51.018;4.474;2022-09-09T08:34:08;20.20;99.90
22950;DHT22;11641;51.018;4.474;2022-09-09T08:36:37;20.00;99.90
22950;DHT22;11641;51.018;4.474;2022-09-09T08:39:05;19.60;99.90
22950;DHT22;11641;51.018;4.474;2022-09-09T08:52:25;19.50;99.90
22950;DHT22;11641;51.018;4.474;2022-09-09T08:54:58;19.40;99.90
22950;DHT22;11641;51.018;4.474;2022-09-09T08:57:28;19.50;99.90
22950;DHT22;11641;51.018;4.474;2022-09-09T08:59:56;19.30;99.90
22950;DHT22;11641;51.018;4.474;2022-09-09T09:02:43;19.30;99.90
22950;DHT22;11641;51.018;4.474;2022-09-09T09:05:40;19.30;99.90
22950;DHT22;11641;51.018;4.474;2022-09-09T09:08:10;19.20;99.90
22950;DHT22;11641;51.018;4.474;2022-09-09T09:10:54;19.00;99.90
22950;DHT22;11641;51.018;4.474;2022-09-09T09:19:06;18.30;99.90
22950;DHT22;11641;51.018;4.474;2022-09-09T09:21:42;18.50;99.90
22950;DHT22;11641;51.018;4.474;2022-09-09T09:26:43;18.60;99.90
22950;DHT22;11641;51.018;4.474;2022-09-09T09:29:27;18.60;99.90
22950;DHT22;11641;51.018;4.474;2022-09-09T09:31:58;18.30;99.90
22950;DHT22;11641;51.018;4.474;2022-09-09T09:34:24;18.30;99.90
22950;DHT22;11641;51.018;4.474;2022-09-09T09:36:56;18.20;99.90
22950;DHT22;11641;51.018;4.474;2022-09-09T09:39:30;18.30;99.90
22950;DHT22;11641;51.018;4.474;2022-09-09T09:41:56;18.20;99.90
22950;DHT22;11641;51.018;4.474;2022-09-09T09:44:32;18.10;99.90
22950;DHT22;11641;51.018;4.474;2022-09-09T09:47:10;18.10;99.90
22950;DHT22;11641;51.018;4.474;2022-09-09T09:49:37;18.10;99.90
22950;DHT22;11641;51.018;4.474;2022-09-09T09:52:05;18.20;99.90
22950;DHT22;11641;51.018;4.474;2022-09-09T09:54:39;18.20;99.90
22950;DHT22;11641;51.018;4.474;2022-09-09T09:57:15;18.40;99.90
22950;DHT22;11641;51.018;4.474;2022-09-09T09:59:42;18.80;99.90
22950;DHT22;11641;51.018;4.474;2022-09-09T10:02:19;18.70;99.90
22950;DHT22;11641;51.018;4.474;2022-09-09T10:04:46;18.40;99.90
22950;DHT22;11641;51.018;4.474;2022-09-09T10:07:21;18.40;99.90
22950;DHT22;11641;51.018;4.474;2022-09-09T10:09:55;18.30;99.90
22950;DHT22;11641;51.018;4.474;2022-09-09T10:12:27;18.20;99.90
22950;DHT22;11641;51.018;4.474;2022-09-09T10:28:46;19.40;99.90
22950;DHT22;11641;51.018;4.474;2022-09-09T10:31:19;19.20;99.90
22950;DHT22;11641;51.018;4.474;2022-09-09T10:36:25;19.30;99.90
22950;DHT22;11641;51.018;4.474;2022-09-09T10:42:13;19.20;99.90
22950;DHT22;11641;51.018;4.474;2022-09-09T10:52:58;19.80;99.90
22950;DHT22;11641;51.018;4.474;2022-09-09T10:55:32;19.30;99.90
22950;DHT22;11641;51.018;4.474;2022-09-09T10:58:03;19.10;99.90
22950;DHT22;11641;51.018;4.474;2022-09-09T11:03:23;19.60;99.90
22950;DHT22;11641;51.018;4.474;2022-09-09T11:06:04;19.70;99.90
22950;DHT22;11641;51.018;4.474;2022-09-09T11:08:34;19.80;99.90
22950;DHT22;11641;51.018;4.474;2022-09-09T11:11:25;20.20;99.90
22950;DHT22;11641;51.018;4.474;2022-09-09T11:21:47;19.50;99.90
22950;DHT22;11641;51.018;4.474;2022-09-09T11:24:33;19.30;99.90
22950;DHT22;11641;51.018;4.474;2022-09-09T11:27:14;19.60;99.90
22950;DHT22;11641;51.018;4.474;2022-09-09T11:29:44;19.80;99.90
22950;DHT22;11641;51.018;4.474;2022-09-09T11:35:09;20.10;99.90
22950;DHT22;11641;51.018;4.474;2022-09-09T11:40:28;20.20;99.90
22950;DHT22;11641;51.018;4.474;2022-09-09T11:43:03;20.70;99.90
22950;DHT22;11641;51.018;4.474;2022-09-09T11:45:33;21.60;99.90
22950;DHT22;11641;51.018;4.474;2022-09-09T11:48:20;22.30;99.90
22950;DHT22;11641;51.018;4.474;2022-09-09T11:51:01;22.70;99.90
22950;DHT22;11641;51.018;4.474;2022-09-09T11:53:28;22.50;99.90
22950;DHT22;11641;51.018;4.474;2022-09-09T11:56:06;21.90;99.90
22950;DHT22;11641;51.018;4.474;2022-09-09T11:58:44;21.30;99.90
22950;DHT22;11641;51.018;4.474;2022-09-09T12:01:16;21.10;99.90
22950;DHT22;11641;51.018;4.474;2022-09-09T12:09:17;21.70;99.90
22950;DHT22;11641;51.018;4.474;2022-09-09T12:11:45;22.30;99.90
22950;DHT22;11641;51.018;4.474;2022-09-09T12:17:19;23.50;99.90
22950;DHT22;11641;51.018;4.474;2022-09-09T12:19:47;23.40;99.90
22950;DHT22;11641;51.018;4.474;2022-09-09T12:22:27;22.70;99.90
22950;DHT22;11641;51.018;4.474;2022-09-09T12:28:22;23.00;99.90
22950;DHT22;11641;51.018;4.474;2022-09-09T12:33:36;24.60;99.90
22950;DHT22;11641;51.018;4.474;2022-09-09T12:36:03;26.30;99.90
22950;DHT22;11641;51.018;4.474;2022-09-09T12:38:36;27.00;99.90
22950;DHT22;11641;51.018;4.474;2022-09-09T12:41:02;25.30;99.90
22950;DHT22;11641;51.018;4.474;2022-09-09T12:43:28;24.10;99.90
22950;DHT22;11641;51.018;4.474;2022-09-09T12:46:03;23.40;99.90
22950;DHT22;11641;51.018;4.474;2022-09-09T12:48:37;23.30;99.90
22950;DHT22;11641;51.018;4.474;2022-09-09T12:51:16;23.40;99.90
22950;DHT22;11641;51.018;4.474;2022-09-09T12:53:47;23.70;99.90
22950;DHT22;11641;51.018;4.474;2022-09-09T12:56:24;24.20;99.90
22950;DHT22;11641;51.018;4.474;2022-09-09T12:58:57;23.90;99.90
22950;DHT22;11641;51.018;4.474;2022-09-09T13:01:26;24.30;99.90
22950;DHT22;11641;51.018;4.474;2022-09-09T13:03:52;23.60;99.90
22950;DHT22;11641;51.018;4.474;2022-09-09T13:08:50;23.10;99.90
22950;DHT22;11641;51.018;4.474;2022-09-09T13:11:30;23.20;99.90
22950;DHT22;11641;51.018;4.474;2022-09-09T13:13:58;23.40;99.90
22950;DHT22;11641;51.018;4.474;2022-09-09T13:16:33;24.10;99.90
22950;DHT22;11641;51.018;4.474;2022-09-09T13:19:01;24.90;99.90
22950;DHT22;11641;51.018;4.474;2022-09-09T13:21:39;24.50;99.90
22950;DHT22;11641;51.018;4.474;2022-09-09T13:24:07;23.90;99.90
22950;DHT22;11641;51.018;4.474;2022-09-09T13:27:04;22.90;99.90
22950;DHT22;11641;51.018;4.474;2022-09-09T13:29:31;23.10;99.90
22950;DHT22;11641;51.018;4.474;2022-09-09T13:32:17;22.80;99.90
22950;DHT22;11641;51.018;4.474;2022-09-09T13:34:57;23.30;99.90
22950;DHT22;11641;51.018;4.474;2022-09-09T13:37:26;22.90;99.90
22950;DHT22;11641;51.018;4.474;2022-09-09T13:39:57;22.60;99.90
22950;DHT22;11641;51.018;4.474;2022-09-09T13:42:26;22.30;99.90
22950;DHT22;11641;51.018;4.474;2022-09-09T13:44:56;22.10;99.90
22950;DHT22;11641;51.018;4.474;2022-09-09T13:47:36;22.30;99.90
22950;DHT22;11641;51.018;4.474;2022-09-09T13:50:28;23.00;99.90
22950;DHT22;11641;51.018;4.474;2022-09-09T13:52:56;22.90;99.90
22950;DHT22;11641;51.018;4.474;2022-09-09T13:55:30;23.50;99.90
22950;DHT22;11641;51.018;4.474;2022-09-09T13:58:01;23.40;99.90
22950;DHT22;11641;51.018;4.474;2022-09-09T14:00:31;23.20;99.90
22950;DHT22;11641;51.018;4.474;2022-09-09T14:02:58;23.80;99.90
22950;DHT22;11641;51.018;4.474;2022-09-09T14:05:29;23.80;99.90
22950;DHT22;11641;51.018;4.474;2022-09-09T14:07:57;23.70;99.90
22950;DHT22;11641;51.018;4.474;2022-09-09T14:10:24;23.70;99.90
22950;DHT22;11641;51.018;4.474;2022-09-09T14:12:49;23.50;99.90
22950;DHT22;11641;51.018;4.474;2022-09-09T14:15:15;23.10;99.90
22950;DHT22;11641;51.018;4.474;2022-09-09T14:17:46;23.00;99.90
22950;DHT22;11641;51.018;4.474;2022-09-09T14:20:14;22.80;99.90
22950;DHT22;11641;51.018;4.474;2022-09-09T14:22:42;23.20;99.90
22950;DHT22;11641;51.018;4.474;2022-09-09T14:25:09;23.10;99.90
22950;DHT22;11641;51.018;4.474;2022-09-09T14:27:37;23.40;99.90
22950;DHT22;11641;51.018;4.474;2022-09-09T14:30:05;23.80;99.90
22950;DHT22;11641;51.018;4.474;2022-09-09T14:32:31;24.40;99.90
22950;DHT22;11641;51.018;4.474;2022-09-09T14:34:56;24.70;99.90
22950;DHT22;11641;51.018;4.474;2022-09-09T14:37:22;26.10;99.90
22950;DHT22;11641;51.018;4.474;2022-09-09T14:39:48;27.00;99.90
22950;DHT22;11641;51.018;4.474;2022-09-09T14:42:16;26.20;99.90
22950;DHT22;11641;51.018;4.474;2022-09-09T14:44:41;25.20;99.90
22950;DHT22;11641;51.018;4.474;2022-09-09T14:47:10;24.10;99.90
22950;DHT22;11641;51.018;4.474;2022-09-09T14:49:39;23.60;99.90
22950;DHT22;11641;51.018;4.474;2022-09-09T14:52:05;23.10;99.90
22950;DHT22;11641;51.018;4.474;2022-09-09T14:54:34;22.60;99.90
22950;DHT22;11641;51.018;4.474;2022-09-09T14:57:03;22.10;99.90
22950;DHT22;11641;51.018;4.474;2022-09-09T14:59:29;21.50;99.90
22950;DHT22;11641;51.018;4.474;2022-09-09T15:01:55;21.20;99.90
22950;DHT22;11641;51.018;4.474;2022-09-09T15:04:21;21.50;99.90
22950;DHT22;11641;51.018;4.474;2022-09-09T15:06:48;21.70;99.90
22950;DHT22;11641;51.018;4.474;2022-09-09T15:09:15;21.40;99.90
22950;DHT22;11641;51.018;4.474;2022-09-09T15:11:43;21.80;99.90
22950;DHT22;11641;51.018;4.474;2022-09-09T15:14:09;22.20;99.90
22950;DHT22;11641;51.018;4.474;2022-09-09T15:16:42;23.00;99.90
22950;DHT22;11641;51.018;4.474;2022-09-09T15:19:08;23.60;99.90
22950;DHT22;11641;51.018;4.474;2022-09-09T15:21:36;23.50;99.90
22950;DHT22;11641;51.018;4.474;2022-09-09T15:24:04;23.20;99.90
22950;DHT22;11641;51.018;4.474;2022-09-09T15:26:30;22.90;99.90
22950;DHT22;11641;51.018;4.474;2022-09-09T15:28:55;22.50;99.90
22950;DHT22;11641;51.018;4.474;2022-09-09T15:31:27;22.50;99.90
22950;DHT22;11641;51.018;4.474;2022-09-09T15:34:02;22.60;99.90
22950;DHT22;11641;51.018;4.474;2022-09-09T15:36:31;22.50;99.90
22950;DHT22;11641;51.018;4.474;2022-09-09T15:39:08;22.20;99.90
22950;DHT22;11641;51.018;4.474;2022-09-09T15:41:38;21.30;99.90
22950;DHT22;11641;51.018;4.474;2022-09-09T15:44:05;20.70;99.90
22950;DHT22;11641;51.018;4.474;2022-09-09T15:46:36;20.20;99.90
22950;DHT22;11641;51.018;4.474;2022-09-09T15:49:08;19.90;99.90
22950;DHT22;11641;51.018;4.474;2022-09-09T15:51:39;19.50;99.90
22950;DHT22;11641;51.018;4.474;2022-09-09T15:54:11;19.20;99.90
22950;DHT22;11641;51.018;4.474;2022-09-09T15:56:38;19.00;99.90
22950;DHT22;11641;51.018;4.474;2022-09-09T15:59:04;18.80;99.90
22950;DHT22;11641;51.018;4.474;2022-09-09T16:01:31;18.40;99.90
22950;DHT22;11641;51.018;4.474;2022-09-09T16:04:00;18.20;99.90
22950;DHT22;11641;51.018;4.474;2022-09-09T16:06:27;18.30;99.90
22950;DHT22;11641;51.018;4.474;2022-09-09T16:08:54;18.30;99.90
22950;DHT22;11641;51.018;4.474;2022-09-09T16:11:27;18.30;99.90
22950;DHT22;11641;51.018;4.474;2022-09-09T16:13:54;18.30;99.90
22950;DHT22;11641;51.018;4.474;2022-09-09T16:16:23;18.30;99.90
22950;DHT22;11641;51.018;4.474;2022-09-09T16:18:54;18.20;99.90
22950;DHT22;11641;51.018;4.474;2022-09-09T16:21:41;18.30;99.90
22950;DHT22;11641;51.018;4.474;2022-09-09T16:24:13;18.40;99.90
22950;DHT22;11641;51.018;4.474;2022-09-09T16:26:42;18.30;99.90
22950;DHT22;11641;51.018;4.474;2022-09-09T16:29:11;18.50;99.90
22950;DHT22;11641;51.018;4.474;2022-09-09T16:31:39;18.50;99.90
22950;DHT22;11641;51.018;4.474;2022-09-09T16:34:06;18.50;99.90
22950;DHT22;11641;51.018;4.474;2022-09-09T16:36:36;18.40;99.90
22950;DHT22;11641;51.018;4.474;2022-09-09T16:39:05;18.50;99.90
22950;DHT22;11641;51.018;4.474;2022-09-09T16:41:32;18.40;99.90
22950;DHT22;11641;51.018;4.474;2022-09-09T16:44:06;18.50;99.90
22950;DHT22;11641;51.018;4.474;2022-09-09T16:46:35;18.40;99.90
22950;DHT22;11641;51.018;4.474;2022-09-09T16:49:05;18.50;99.90
22950;DHT22;11641;51.018;4.474;2022-09-09T16:51:34;18.50;99.90
22950;DHT22;11641;51.018;4.474;2022-09-09T16:54:02;18.50;99.90
22950;DHT22;11641;51.018;4.474;2022-09-09T16:56:30;18.40;99.90
22950;DHT22;11641;51.018;4.474;2022-09-09T16:59:00;18.40;99.90
22950;DHT22;11641;51.018;4.474;2022-09-09T17:01:30;18.50;99.90
22950;DHT22;11641;51.018;4.474;2022-09-09T17:04:01;18.60;99.90
22950;DHT22;11641;51.018;4.474;2022-09-09T17:06:29;19.40;99.90
22950;DHT22;11641;51.018;4.474;2022-09-09T17:08:57;19.80;99.90
22950;DHT22;11641;51.018;4.474;2022-09-09T17:11:26;20.10;99.90
22950;DHT22;11641;51.018;4.474;2022-09-09T17:13:53;20.50;99.90
22950;DHT22;11641;51.018;4.474;2022-09-09T17:16:21;20.60;99.90
22950;DHT22;11641;51.018;4.474;2022-09-09T17:18:50;20.70;99.90
22950;DHT22;11641;51.018;4.474;2022-09-09T17:21:19;20.70;99.90
22950;DHT22;11641;51.018;4.474;2022-09-09T17:23:46;20.50;99.90
22950;DHT22;11641;51.018;4.474;2022-09-09T17:26:19;20.30;99.90
22950;DHT22;11641;51.018;4.474;2022-09-09T17:28:54;20.10;99.90
22950;DHT22;11641;51.018;4.474;2022-09-09T17:31:21;20.00;99.90
22950;DHT22;11641;51.018;4.474;2022-09-09T17:33:53;19.90;99.90
22950;DHT22;11641;51.018;4.474;2022-09-09T17:36:24;19.90;99.90
22950;DHT22;11641;51.018;4.474;2022-09-09T17:38:54;19.90;99.90
22950;DHT22;11641;51.018;4.474;2022-09-09T17:41:29;19.70;99.90
22950;DHT22;11641;51.018;4.474;2022-09-09T17:44:02;19.70;99.90